Time;durP1;ratioP1;P1;durP2;ratioP2;P2;SDS_P1;SDS_P2;PMS_P1;PMS_P2;Temp;Humidity;BMP_temperature;BMP_pressure;BME280_temperature;BME280_humidity;BME280_pressure;Samples;Min_cycle;Max_cycle;Signal;HPM_P1;HPM_P2
2021/12/06 00:01:12;;;;;;;;;2.00;2.00;;;;;21.11;39.72;100714.22;5075614;27;52196;-45
2021/12/06 00:03:46;;;;;;;;;1.25;1.25;;;;;21.11;39.90;100716.13;5077710;27;51211;-44
2021/12/06 00:06:15;;;;;;;;;1.50;1.50;;;;;21.09;39.80;100715.53;5076435;27;51084;-43
2021/12/06 00:08:41;;;;;;;;;1.50;1.25;;;;;21.07;39.94;100720.41;5057900;28;50973;-43
2021/12/06 00:11:08;;;;;;;;;1.50;1.50;;;;;21.06;40.14;100716.81;5073527;28;53765;-46
2021/12/06 00:13:40;;;;;;;;;3.00;1.00;;;;;21.04;40.19;100722.53;5066417;28;51026;-43
2021/12/06 00:16:12;;;;;;;;;3.75;2.25;;;;;21.04;39.82;100732.72;5075914;27;51029;-48
2021/12/06 00:18:37;;;;;;;;;4.75;2.50;;;;;21.02;40.19;100727.44;5102454;27;50823;-43
2021/12/06 00:21:04;;;;;;;;;1.25;1.25;;;;;21.02;39.66;100732.09;5058286;28;50966;-48
2021/12/06 00:23:29;;;;;;;;;1.00;1.00;;;;;21.01;40.05;100741.44;5076333;28;50896;-44
2021/12/06 00:25:55;;;;;;;;;1.00;1.00;;;;;21.00;39.70;100739.75;5076980;27;51229;-43
2021/12/06 00:28:21;;;;;;;;;1.50;1.00;;;;;20.99;39.92;100732.56;5068305;27;50842;-44
2021/12/06 00:30:47;;;;;;;;;1.25;1.25;;;;;20.96;39.73;100728.38;5070286;28;51417;-45
2021/12/06 00:33:12;;;;;;;;;1.00;1.00;;;;;20.97;39.93;100720.94;5056758;28;50991;-43
2021/12/06 00:35:38;;;;;;;;;1.00;1.00;;;;;20.95;39.77;100731.34;5076508;27;50972;-44
2021/12/06 00:38:03;;;;;;;;;1.00;1.00;;;;;20.93;39.72;100739.81;5070909;28;51109;-43
2021/12/06 00:40:37;;;;;;;;;2.00;2.00;;;;;20.93;39.58;100739.81;5073858;28;51078;-44
2021/12/06 00:43:04;;;;;;;;;2.25;2.25;;;;;20.92;40.03;100749.16;5074325;28;50998;-45
2021/12/06 00:45:29;;;;;;;;;1.50;1.50;;;;;20.91;39.90;100754.88;5071846;27;50985;-44
2021/12/06 00:47:55;;;;;;;;;2.00;2.00;;;;;20.89;39.89;100760.63;5074286;27;51085;-42
2021/12/06 00:50:23;;;;;;;;;1.00;1.00;;;;;20.89;39.80;100765.28;5056796;28;51655;-43
2021/12/06 00:52:50;;;;;;;;;3.50;3.25;;;;;20.88;39.66;100763.63;5072517;27;51230;-45
2021/12/06 00:55:17;;;;;;;;;3.50;3.50;;;;;20.87;40.13;100767.44;5074209;28;51200;-45
2021/12/06 00:57:42;;;;;;;;;1.00;1.00;;;;;20.86;39.85;100769.34;5074130;27;51081;-44
2021/12/06 01:00:19;;;;;;;;;1.00;1.00;;;;;20.84;39.93;100777.00;5075101;28;51117;-44
2021/12/06 01:02:44;;;;;;;;;1.75;1.75;;;;;20.83;39.59;100779.94;5077623;27;50982;-46
2021/12/06 01:05:10;;;;;;;;;1.25;1.00;;;;;20.82;39.67;100778.28;5090001;27;51097;-44
2021/12/06 01:07:35;;;;;;;;;1.75;1.75;;;;;20.82;39.79;100781.88;5082614;27;51014;-44
2021/12/06 01:10:01;;;;;;;;;0.50;0.50;;;;;20.81;39.79;100784.84;5086067;27;51202;-44
2021/12/06 01:12:26;;;;;;;;;1.00;1.00;;;;;20.79;39.52;100776.81;5078778;27;51158;-45
2021/12/06 01:14:52;;;;;;;;;1.75;1.75;;;;;20.80;39.73;100788.66;5076998;27;51103;-45
2021/12/06 01:17:17;;;;;;;;;1.75;1.75;;;;;20.78;40.10;100788.91;5086329;27;50887;-43
2021/12/06 01:19:43;;;;;;;;;1.25;1.25;;;;;20.77;40.00;100786.38;5083421;27;51867;-44
2021/12/06 01:24:43;;;;;;;;;2.00;0.75;;;;;20.75;39.71;100794.88;5075475;28;51376;-46
2021/12/06 01:27:31;;;;;;;;;1.25;1.00;;;;;20.73;39.60;100792.31;5068478;27;52219;-44
2021/12/06 01:40:14;;;;;;;;;1.00;1.00;;;;;20.69;39.79;100815.88;5072730;28;51671;-45
2021/12/06 01:42:39;;;;;;;;;1.25;1.00;;;;;20.68;40.21;100816.09;5091622;27;50961;-45
2021/12/06 01:45:06;;;;;;;;;1.75;1.00;;;;;20.68;39.77;100824.34;5069747;27;51931;-47
2021/12/06 01:47:35;;;;;;;;;1.00;1.00;;;;;20.67;39.97;100829.00;5077563;27;51002;-45
2021/12/06 01:50:18;;;;;;;;;1.00;0.25;;;;;20.65;39.66;100828.41;5094992;27;51007;-46
2021/12/06 01:52:54;;;;;;;;;1.00;1.00;;;;;20.66;39.74;100837.50;5080721;27;51333;-44
2021/12/06 01:55:32;;;;;;;;;0.00;0.00;;;;;20.65;39.81;100841.31;5076466;27;51106;-46
2021/12/06 01:58:00;;;;;;;;;1.00;0.25;;;;;20.63;39.70;100838.78;5077338;27;51059;-46
2021/12/06 02:00:39;;;;;;;;;1.00;1.00;;;;;20.63;40.08;100849.78;5077976;27;51850;-44
2021/12/06 02:03:05;;;;;;;;;1.00;1.00;;;;;20.62;39.73;100858.25;5073416;28;51024;-43
2021/12/06 02:05:32;;;;;;;;;0.75;0.75;;;;;20.62;39.98;100861.84;5079384;27;51003;-46
2021/12/06 02:07:57;;;;;;;;;2.00;1.00;;;;;20.60;39.71;100861.25;5079279;27;50953;-45
2021/12/06 02:10:23;;;;;;;;;1.25;1.25;;;;;20.58;40.02;100865.28;5093043;27;53651;-45
2021/12/06 02:12:52;;;;;;;;;1.00;1.00;;;;;20.57;39.83;100861.69;5084676;27;51289;-44
2021/12/06 02:18:04;;;;;;;;;1.25;0.25;;;;;20.57;39.94;100872.72;5077355;27;51102;-44
2021/12/06 02:20:30;;;;;;;;;0.50;0.50;;;;;20.55;40.06;100874.84;5068975;27;51225;-46
2021/12/06 02:22:57;;;;;;;;;0.00;0.00;;;;;20.55;39.86;100874.00;5079346;27;51228;-45
2021/12/06 02:25:24;;;;;;;;;1.00;1.00;;;;;20.54;39.98;100870.41;5082821;27;51034;-46
2021/12/06 02:27:51;;;;;;;;;2.75;2.00;;;;;20.55;39.91;100874.84;5076127;27;51073;-44
2021/12/06 02:30:19;;;;;;;;;0.50;0.50;;;;;20.54;40.10;100883.31;5075466;28;51148;-44
2021/12/06 02:32:45;;;;;;;;;1.00;1.00;;;;;20.54;39.80;100880.56;5077829;28;51242;-48
2021/12/06 02:35:16;;;;;;;;;1.25;1.25;;;;;20.52;39.83;100882.69;5077080;27;52350;-47
2021/12/06 02:37:42;;;;;;;;;0.25;0.25;;;;;20.51;39.67;100876.34;5077865;28;51129;-48
2021/12/06 02:40:14;;;;;;;;;0.50;0.50;;;;;20.51;39.93;100884.59;5093365;27;52881;-44
2021/12/06 02:42:43;;;;;;;;;0.00;0.00;;;;;20.51;39.72;100878.25;5069157;28;51140;-48
2021/12/06 02:45:14;;;;;;;;;2.50;1.00;;;;;20.49;39.89;100875.72;5077585;28;51322;-48
2021/12/06 02:47:40;;;;;;;;;2.00;2.00;;;;;20.50;39.53;100884.81;5077119;27;51393;-47
2021/12/06 02:50:09;;;;;;;;;1.00;1.00;;;;;20.49;39.82;100881.22;5078747;27;51223;-49
2021/12/06 02:52:38;;;;;;;;;0.00;0.00;;;;;20.48;39.87;100882.28;5078295;28;51327;-47
2021/12/06 02:55:23;;;;;;;;;2.00;0.50;;;;;20.46;39.86;100885.25;5077671;27;51115;-44
2021/12/06 02:57:54;;;;;;;;;1.00;1.00;;;;;20.46;40.07;100876.16;5072361;28;51130;-44
2021/12/06 03:00:20;;;;;;;;;0.00;0.00;;;;;20.45;40.16;100877.22;5077287;27;51872;-44
2021/12/06 03:02:46;;;;;;;;;0.00;0.00;;;;;20.44;39.91;100884.66;5064929;27;51682;-46
2021/12/06 03:05:12;;;;;;;;;0.50;0.50;;;;;20.44;40.24;100878.31;5078759;27;51076;-42
2021/12/06 03:07:38;;;;;;;;;0.00;0.00;;;;;20.43;40.25;100893.13;5086678;27;50932;-45
2021/12/06 03:10:06;;;;;;;;;0.75;0.75;;;;;20.42;39.90;100895.00;5100680;27;51866;-44
2021/12/06 03:12:32;;;;;;;;;0.50;0.50;;;;;20.42;40.09;100902.38;5074322;27;51174;-44
2021/12/06 03:14:59;;;;;;;;;0.00;0.00;;;;;20.41;40.14;100906.19;5078169;27;51031;-45
2021/12/06 03:17:28;;;;;;;;;0.75;0.75;;;;;20.40;39.84;100904.53;5060910;27;50970;-44
2021/12/06 03:19:54;;;;;;;;;0.75;0.75;;;;;20.40;40.22;100912.78;5070995;28;52039;-48
2021/12/06 03:22:20;;;;;;;;;0.00;0.00;;;;;20.38;40.31;100914.91;5056991;28;51104;-47
2021/12/06 03:24:46;;;;;;;;;0.00;0.00;;;;;20.38;39.76;100909.41;5075706;28;51064;-45
2021/12/06 03:27:14;;;;;;;;;1.00;1.00;;;;;20.37;39.73;100915.97;5073850;27;51270;-47
2021/12/06 03:29:40;;;;;;;;;0.00;0.00;;;;;20.36;40.06;100917.03;5082908;27;51843;-45
2021/12/06 03:32:06;;;;;;;;;1.50;0.75;;;;;20.35;39.95;100913.44;5070088;27;51030;-44
2021/12/06 03:34:33;;;;;;;;;0.50;0.00;;;;;20.35;39.87;100921.69;5079112;27;51035;-44
2021/12/06 03:37:01;;;;;;;;;0.75;0.75;;;;;20.35;40.11;100929.13;5084516;27;51086;-44
2021/12/06 03:39:38;;;;;;;;;2.00;0.75;;;;;20.34;40.23;100920.00;5084140;27;52320;-45
2021/12/06 03:42:07;;;;;;;;;0.50;0.50;;;;;20.34;39.98;100916.44;5076434;27;50979;-44
2021/12/06 03:44:33;;;;;;;;;1.25;0.25;;;;;20.34;40.11;100920.00;5072187;27;51393;-45
2021/12/06 03:47:02;;;;;;;;;1.00;1.00;;;;;20.34;40.29;100913.66;5072480;27;50880;-44
2021/12/06 03:49:27;;;;;;;;;0.50;0.50;;;;;20.33;40.24;100921.09;5077537;27;51165;-46
2021/12/06 03:51:53;;;;;;;;;0.00;0.00;;;;;20.32;39.99;100918.53;5077465;28;51188;-44
2021/12/06 03:54:22;;;;;;;;;2.00;1.75;;;;;20.31;40.02;100923.19;5077680;27;50999;-45
2021/12/06 03:56:48;;;;;;;;;1.00;1.00;;;;;20.31;40.39;100927.84;5070264;28;50892;-47
2021/12/06 03:59:15;;;;;;;;;3.25;1.00;;;;;20.30;40.26;100932.50;5090086;27;53054;-45
2021/12/06 04:01:40;;;;;;;;;0.75;0.50;;;;;20.29;40.22;100929.97;5071961;28;50846;-45
2021/12/06 04:04:07;;;;;;;;;0.25;0.25;;;;;20.29;40.17;100935.47;5093585;27;50830;-43
2021/12/06 04:06:33;;;;;;;;;1.00;1.00;;;;;20.27;40.29;100946.72;5078337;27;51365;-46
2021/12/06 04:08:59;;;;;;;;;0.00;0.00;;;;;20.27;39.96;100952.19;5092072;27;53077;-44
2021/12/06 04:11:25;;;;;;;;;0.25;0.25;;;;;20.27;40.20;100959.63;5076259;28;51164;-44
2021/12/06 04:13:50;;;;;;;;;0.50;0.50;;;;;20.27;40.44;100967.88;5077026;27;51103;-45
2021/12/06 04:16:16;;;;;;;;;0.00;0.00;;;;;20.25;40.13;100968.09;5077988;27;51225;-44
2021/12/06 04:18:42;;;;;;;;;0.00;0.00;;;;;20.25;39.82;100975.50;5076880;27;51983;-45
2021/12/06 04:21:09;;;;;;;;;0.75;0.75;;;;;20.24;40.14;100984.81;5077476;27;50887;-45
2021/12/06 04:23:35;;;;;;;;;1.00;1.00;;;;;20.24;39.86;100980.16;5077538;27;50941;-45
2021/12/06 04:26:01;;;;;;;;;0.75;0.75;;;;;20.23;39.97;100981.22;5076817;27;51618;-46
2021/12/06 04:28:29;;;;;;;;;2.25;1.00;;;;;20.22;40.31;100982.28;5075847;27;50962;-45
2021/12/06 04:30:54;;;;;;;;;1.00;1.00;;;;;20.23;40.16;100988.63;5072224;27;51527;-45
2021/12/06 04:33:20;;;;;;;;;1.00;0.00;;;;;20.23;39.94;100988.63;5056914;28;51284;-45
2021/12/06 04:35:46;;;;;;;;;0.00;0.00;;;;;20.21;40.38;100983.31;5069181;28;51472;-44
2021/12/06 04:38:12;;;;;;;;;1.00;1.00;;;;;20.21;40.09;100988.81;5077067;27;51830;-46
2021/12/06 04:40:38;;;;;;;;;0.00;0.00;;;;;20.22;39.83;100986.91;5067739;28;51004;-45
2021/12/06 04:43:03;;;;;;;;;1.00;1.00;;;;;20.21;40.02;100985.22;5072619;27;51198;-45
2021/12/06 04:45:29;;;;;;;;;0.75;0.00;;;;;20.20;40.04;100992.63;5076531;27;50928;-44
2021/12/06 04:47:55;;;;;;;;;1.00;1.00;;;;;20.19;40.19;101002.78;5076736;27;50885;-42
2021/12/06 04:50:25;;;;;;;;;2.75;1.75;;;;;20.18;39.95;101012.13;5087893;27;51337;-47
2021/12/06 04:52:55;;;;;;;;;1.00;1.00;;;;;20.18;40.01;101017.63;5068566;28;51329;-45
2021/12/06 04:55:38;;;;;;;;;1.00;1.00;;;;;20.17;40.08;101013.19;5087007;27;51318;-44
2021/12/06 04:58:06;;;;;;;;;1.00;0.25;;;;;20.17;40.17;101015.94;5084543;27;54164;-44
2021/12/06 05:00:40;;;;;;;;;2.00;1.50;;;;;20.16;39.96;101019.75;5082703;27;50970;-43
2021/12/06 05:03:07;;;;;;;;;1.00;0.50;;;;;20.16;39.96;101018.91;5076515;27;50880;-43
2021/12/06 05:05:46;;;;;;;;;1.75;1.00;;;;;20.15;40.26;101022.72;5077068;27;51145;-43
2021/12/06 05:08:23;;;;;;;;;1.50;1.50;;;;;20.15;40.26;101029.06;5076831;27;51740;-45
2021/12/06 05:10:49;;;;;;;;;1.00;1.00;;;;;20.14;40.11;101030.13;5064445;28;51143;-44
2021/12/06 05:13:15;;;;;;;;;2.25;1.00;;;;;20.14;40.22;101032.88;5061261;28;52443;-45
2021/12/06 05:15:40;;;;;;;;;2.00;1.00;;;;;20.13;40.37;101033.94;5073124;28;50822;-45
2021/12/06 05:18:07;;;;;;;;;2.25;1.00;;;;;20.12;40.31;101032.25;5069900;28;52041;-43
2021/12/06 05:20:34;;;;;;;;;2.25;2.00;;;;;20.12;39.95;101035.00;5077889;27;51033;-44
2021/12/06 05:23:00;;;;;;;;;1.25;0.50;;;;;20.13;40.06;101041.34;5077506;27;51166;-43
2021/12/06 05:25:26;;;;;;;;;1.00;1.00;;;;;20.11;40.02;101032.44;5066940;27;51083;-45
2021/12/06 05:27:52;;;;;;;;;0.25;0.25;;;;;20.10;40.02;101042.59;5076612;27;51788;-44
2021/12/06 05:30:21;;;;;;;;;0.25;0.25;;;;;20.12;40.37;101046.00;5094351;27;51157;-42
2021/12/06 05:32:47;;;;;;;;;1.25;1.25;;;;;20.10;40.21;101045.34;5078416;28;50861;-47
2021/12/06 05:35:12;;;;;;;;;1.00;1.00;;;;;20.10;39.99;101058.25;5080588;27;51120;-51
2021/12/06 05:37:41;;;;;;;;;1.75;1.00;;;;;20.09;40.03;101062.91;5080008;27;50943;-48
2021/12/06 05:40:11;;;;;;;;;2.25;0.75;;;;;20.08;39.95;101057.63;5079088;28;51006;-47
2021/12/06 05:42:36;;;;;;;;;1.75;1.00;;;;;20.08;40.09;101072.22;5080868;27;50949;-48
2021/12/06 05:45:04;;;;;;;;;1.00;1.00;;;;;20.08;40.23;101071.38;5082637;27;51072;-44
2021/12/06 05:47:30;;;;;;;;;2.75;2.50;;;;;20.07;39.33;101073.28;5077695;27;51012;-44
2021/12/06 05:49:55;;;;;;;;;3.50;3.00;;;;;20.03;38.64;101072.03;5088863;27;51028;-47
2021/12/06 05:52:21;;;;;;;;;6.00;4.50;;;;;19.99;38.63;101069.91;5085067;27;51082;-44
2021/12/06 05:54:46;;;;;;;;;4.75;4.00;;;;;19.94;37.98;101075.22;5085466;27;50935;-44
2021/12/06 05:57:12;;;;;;;;;5.00;5.00;;;;;19.88;38.44;101076.91;5096715;27;51317;-44
2021/12/06 05:59:39;;;;;;;;;6.00;5.00;;;;;19.83;37.65;101083.03;5075010;27;51193;-47
2021/12/06 06:02:06;;;;;;;;;8.25;5.75;;;;;19.75;37.63;101077.75;5079060;27;51088;-46
2021/12/06 06:04:33;;;;;;;;;4.75;4.75;;;;;19.70;37.77;101068.47;5079605;28;50934;-43
2021/12/06 06:06:59;;;;;;;;;5.75;4.25;;;;;19.67;38.06;101077.13;5077785;27;51035;-47
2021/12/06 06:09:24;;;;;;;;;4.00;2.50;;;;;19.65;38.26;101077.34;5078944;28;50897;-47
2021/12/06 06:11:50;;;;;;;;;4.00;2.50;;;;;19.66;38.22;101076.28;5078088;27;51492;-51
2021/12/06 06:14:16;;;;;;;;;3.50;2.25;;;;;19.72;37.94;101080.94;5077770;27;51089;-46
2021/12/06 06:16:49;;;;;;;;;4.00;1.75;;;;;19.81;38.06;101085.16;5075524;27;51845;-48
2021/12/06 06:19:20;;;;;;;;;5.00;2.75;;;;;19.91;38.33;101084.75;5072518;28;51320;-45
2021/12/06 06:21:47;;;;;;;;;3.75;3.50;;;;;19.99;38.16;101089.16;5074392;28;51228;-47
2021/12/06 06:24:13;;;;;;;;;2.50;1.50;;;;;20.09;38.43;101090.41;5080115;27;50875;-44
2021/12/06 06:26:38;;;;;;;;;3.00;3.00;;;;;20.18;38.60;101099.28;5075856;27;51995;-44
2021/12/06 06:29:04;;;;;;;;;0.50;0.00;;;;;20.26;38.54;101093.56;5077444;28;51239;-44
2021/12/06 06:31:29;;;;;;;;;3.00;2.00;;;;;20.35;38.45;101105.19;5071886;28;51237;-44
2021/12/06 06:33:55;;;;;;;;;4.00;3.00;;;;;20.42;38.09;101097.75;5070513;27;51075;-43
2021/12/06 06:36:20;;;;;;;;;2.00;1.00;;;;;20.50;38.75;101100.28;5075958;27;51149;-43
2021/12/06 06:38:45;;;;;;;;;1.50;1.50;;;;;20.57;38.81;101106.63;5073006;27;51232;-45
2021/12/06 06:41:11;;;;;;;;;2.75;1.00;;;;;20.62;39.14;101100.47;5081538;27;51166;-45
2021/12/06 06:43:37;;;;;;;;;4.50;3.00;;;;;20.67;39.62;101100.69;5079860;27;51022;-50
2021/12/06 06:46:03;;;;;;;;;1.75;1.75;;;;;20.71;39.12;101105.53;5087580;27;52572;-42
2021/12/06 06:48:29;;;;;;;;;1.75;1.75;;;;;20.76;39.68;101099.38;5087089;27;51180;-49
2021/12/06 06:50:55;;;;;;;;;2.00;1.50;;;;;20.82;39.35;101097.63;5091743;27;51142;-42
2021/12/06 06:53:20;;;;;;;;;3.25;2.00;;;;;20.86;39.77;101105.25;5072563;27;51215;-43
2021/12/06 06:55:46;;;;;;;;;4.00;2.00;;;;;20.91;40.37;101107.34;5076928;27;51079;-45
2021/12/06 06:58:11;;;;;;;;;2.00;2.00;;;;;20.95;40.15;101103.13;5070477;27;51066;-43
2021/12/06 07:00:38;;;;;;;;;1.00;1.00;;;;;21.00;40.75;101108.78;5083069;27;51005;-44
2021/12/06 07:03:06;;;;;;;;;1.75;1.75;;;;;21.05;40.76;101117.25;5074000;27;51285;-43
2021/12/06 07:05:32;;;;;;;;;1.50;1.50;;;;;21.10;40.67;101127.59;5080739;27;51755;-43
2021/12/06 07:07:58;;;;;;;;;3.00;1.00;;;;;21.15;40.55;101136.88;5070823;27;51243;-43
2021/12/06 07:10:24;;;;;;;;;1.75;1.75;;;;;21.19;41.03;101124.38;5076374;27;50965;-43
2021/12/06 07:12:54;;;;;;;;;3.00;1.25;;;;;21.25;40.92;101134.50;5075167;27;51282;-44
2021/12/06 07:15:25;;;;;;;;;0.25;0.25;;;;;21.29;41.30;101141.31;5071422;27;51173;-39
2021/12/06 07:17:52;;;;;;;;;2.00;0.25;;;;;21.35;40.72;101149.75;5070694;27;51012;-45
2021/12/06 07:20:19;;;;;;;;;1.75;1.00;;;;;21.39;40.80;101148.25;5069753;27;51073;-45
2021/12/06 07:22:45;;;;;;;;;2.00;1.00;;;;;21.42;41.37;101154.16;5074074;27;51267;-42
2021/12/06 07:25:15;;;;;;;;;1.00;1.00;;;;;21.47;41.31;101154.34;5074238;27;51940;-44
2021/12/06 07:27:42;;;;;;;;;2.75;2.00;;;;;21.52;40.77;101154.53;5077755;27;51355;-47
2021/12/06 07:30:09;;;;;;;;;1.00;1.00;;;;;21.59;40.49;101154.47;5073230;27;51179;-47
2021/12/06 07:32:35;;;;;;;;;1.00;1.00;;;;;21.63;40.33;101155.72;5075094;27;50954;-43
2021/12/06 07:35:02;;;;;;;;;3.00;1.50;;;;;21.65;40.45;101164.59;5096557;27;53275;-42
2021/12/06 07:37:28;;;;;;;;;3.00;1.00;;;;;21.69;40.38;101170.53;5073912;27;51189;-43
2021/12/06 07:39:53;;;;;;;;;3.00;2.00;;;;;21.72;40.39;101168.16;5074731;27;51400;-45
2021/12/06 07:42:18;;;;;;;;;2.00;2.00;;;;;21.75;40.55;101162.19;5070746;27;51326;-43
2021/12/06 07:44:44;;;;;;;;;1.25;1.00;;;;;21.77;40.94;101157.31;5069436;27;51094;-43
2021/12/06 07:47:11;;;;;;;;;1.50;1.50;;;;;21.80;40.41;101159.63;5075655;27;50900;-43
2021/12/06 07:49:37;;;;;;;;;2.25;2.25;;;;;21.83;40.44;101161.09;5074141;27;51144;-43
2021/12/06 07:52:04;;;;;;;;;2.75;2.50;;;;;21.87;40.63;101165.94;5075550;27;50993;-44
2021/12/06 07:54:30;;;;;;;;;4.25;2.75;;;;;21.93;40.29;101164.19;5073312;27;53632;-42
2021/12/06 07:56:55;;;;;;;;;5.00;3.25;;;;;21.95;40.02;101158.44;5076583;27;51282;-42
2021/12/06 07:59:21;;;;;;;;;4.00;2.50;;;;;21.96;40.24;101160.97;5073468;27;51408;-46
2021/12/06 08:01:47;;;;;;;;;5.25;3.50;;;;;21.98;39.90;101180.06;5068511;27;51004;-44
2021/12/06 08:04:12;;;;;;;;;4.00;3.25;;;;;21.99;40.10;101162.44;5077837;27;51861;-43
2021/12/06 08:06:37;;;;;;;;;4.00;4.00;;;;;21.99;39.79;101166.06;5078412;27;51214;-44
2021/12/06 08:09:04;;;;;;;;;5.00;3.75;;;;;22.02;39.29;101164.78;5080506;27;51255;-45
2021/12/06 08:11:29;;;;;;;;;5.50;3.75;;;;;22.04;39.51;101165.38;5079560;27;51005;-44
2021/12/06 08:13:55;;;;;;;;;4.00;2.75;;;;;22.07;39.54;101154.75;5076817;27;51341;-41
2021/12/06 08:16:24;;;;;;;;;2.75;2.75;;;;;22.13;39.76;101145.59;5076744;27;51055;-44
2021/12/06 08:18:49;;;;;;;;;4.25;4.00;;;;;22.17;39.57;101148.75;5082567;27;50995;-46
2021/12/06 08:21:18;;;;;;;;;1.50;1.50;;;;;22.22;39.22;101153.59;5110022;27;51037;-41
2021/12/06 08:23:44;;;;;;;;;2.50;2.50;;;;;22.26;39.94;101155.66;5080007;27;50987;-42
2021/12/06 08:26:11;;;;;;;;;4.50;3.50;;;;;22.31;39.31;101153.09;5084577;27;50944;-43
2021/12/06 08:28:38;;;;;;;;;3.00;3.00;;;;;22.35;39.09;101153.47;5081244;27;51237;-45
2021/12/06 08:31:06;;;;;;;;;4.00;2.25;;;;;22.37;39.51;101143.88;5079096;27;51393;-44
2021/12/06 08:33:32;;;;;;;;;3.25;3.00;;;;;22.39;39.22;101135.34;5077108;27;51178;-43
2021/12/06 08:35:58;;;;;;;;;2.00;2.00;;;;;22.42;39.45;101121.97;5076437;27;51426;-45
2021/12/06 08:38:27;;;;;;;;;3.25;2.25;;;;;22.45;39.57;101140.81;5076100;27;51025;-45
2021/12/06 08:40:54;;;;;;;;;2.50;2.00;;;;;22.48;39.04;101148.63;5072021;27;51298;-42
2021/12/06 08:43:20;;;;;;;;;3.00;3.00;;;;;22.50;39.49;101153.09;5075964;27;51011;-42
2021/12/06 08:45:48;;;;;;;;;2.75;2.00;;;;;22.52;39.10;101146.28;5081742;27;51152;-44
2021/12/06 08:48:14;;;;;;;;;4.50;2.00;;;;;22.54;38.96;101144.13;5075825;27;51126;-44
2021/12/06 08:50:40;;;;;;;;;4.75;3.00;;;;;22.56;39.51;101146.66;5084781;27;51065;-43
2021/12/06 08:53:05;;;;;;;;;2.00;2.00;;;;;22.58;39.27;101150.03;5075917;27;52024;-43
2021/12/06 08:55:31;;;;;;;;;2.50;2.50;;;;;22.60;39.29;101137.69;5077484;27;50990;-43
2021/12/06 08:57:56;;;;;;;;;3.25;1.25;;;;;22.60;38.64;101125.78;5084645;27;51048;-44
2021/12/06 09:00:26;;;;;;;;;2.00;2.00;;;;;22.61;39.14;101122.78;5088632;27;51536;-44
2021/12/06 09:02:52;;;;;;;;;3.75;3.75;;;;;22.60;38.80;101142.34;5094168;27;52517;-43
2021/12/06 09:05:19;;;;;;;;;4.75;4.00;;;;;22.60;38.53;101129.41;5085943;27;50928;-42
2021/12/06 09:07:44;;;;;;;;;3.00;3.00;;;;;22.58;37.97;101131.53;5087494;27;51055;-44
2021/12/06 09:10:12;;;;;;;;;4.50;2.75;;;;;22.58;38.52;101134.31;5094038;27;51258;-46
2021/12/06 09:12:39;;;;;;;;;3.50;3.50;;;;;22.59;38.05;101137.91;5095279;27;52020;-45
2021/12/06 09:15:12;;;;;;;;;4.00;2.75;;;;;22.59;37.89;101133.22;5098411;27;51072;-47
2021/12/06 09:17:38;;;;;;;;;3.25;3.25;;;;;22.59;37.88;101144.28;5086461;27;51126;-46
2021/12/06 09:20:07;;;;;;;;;2.00;2.00;;;;;22.60;37.89;101145.97;5087731;27;51117;-44
2021/12/06 09:22:32;;;;;;;;;6.50;4.00;;;;;22.60;37.85;101148.72;5084016;27;52446;-46
2021/12/06 09:24:58;;;;;;;;;2.00;2.00;;;;;22.62;38.08;101145.75;5088165;27;50996;-44
2021/12/06 09:27:23;;;;;;;;;1.50;1.50;;;;;22.63;38.35;101148.28;5084676;27;51208;-44
2021/12/06 09:29:49;;;;;;;;;2.25;2.25;;;;;22.65;38.12;101153.56;5090354;27;51098;-46
2021/12/06 09:32:15;;;;;;;;;3.25;2.00;;;;;22.67;38.63;101145.91;5089704;27;51739;-43
2021/12/06 09:34:44;;;;;;;;;4.00;3.00;;;;;22.63;38.80;101140.00;5086179;27;51076;-45
2021/12/06 09:37:10;;;;;;;;;3.00;2.00;;;;;22.58;38.54;101150.03;5079138;27;51090;-46
2021/12/06 09:39:36;;;;;;;;;6.75;3.25;;;;;22.51;39.07;101146.50;5094196;27;50982;-44
2021/12/06 09:42:02;;;;;;;;;5.00;2.50;;;;;22.44;38.98;101149.34;5089474;27;51041;-48
2021/12/06 09:44:28;;;;;;;;;3.00;2.50;;;;;22.37;39.19;101149.41;5084393;27;51332;-44
2021/12/06 09:46:55;;;;;;;;;5.75;3.25;;;;;22.31;39.26;101146.72;5083851;27;51042;-43
2021/12/06 09:49:22;;;;;;;;;5.50;3.75;;;;;22.23;39.92;101142.31;5075581;27;51170;-44
2021/12/06 09:51:51;;;;;;;;;3.00;3.00;;;;;22.16;39.99;101141.53;5073792;27;51820;-44
2021/12/06 09:54:20;;;;;;;;;3.00;3.00;;;;;22.11;39.57;101141.38;5072327;27;51395;-47
2021/12/06 09:56:47;;;;;;;;;3.00;3.00;;;;;22.05;40.04;101140.31;5090632;27;51418;-44
2021/12/06 09:59:17;;;;;;;;;2.50;1.50;;;;;22.02;39.70;101142.69;5068024;27;51346;-43
2021/12/06 10:01:48;;;;;;;;;2.50;2.50;;;;;21.98;39.20;101144.19;5069086;27;52034;-43
2021/12/06 10:04:15;;;;;;;;;4.00;2.25;;;;;21.97;39.12;101137.00;5066970;27;51454;-45
2021/12/06 10:06:42;;;;;;;;;5.00;3.50;;;;;21.99;39.31;101137.63;5071051;27;51077;-43
2021/12/06 10:09:10;;;;;;;;;5.00;4.00;;;;;22.03;39.58;101147.16;5068034;27;51505;-43
2021/12/06 10:11:37;;;;;;;;;1.75;1.75;;;;;22.08;39.57;101144.56;5105405;27;52918;-43
2021/12/06 10:14:04;;;;;;;;;4.00;3.00;;;;;22.16;39.48;101141.53;5068628;27;50996;-43
2021/12/06 10:16:29;;;;;;;;;2.75;2.75;;;;;22.25;39.46;101145.69;5069192;27;51256;-44
2021/12/06 10:18:55;;;;;;;;;3.75;3.75;;;;;22.32;39.64;101124.41;5073682;27;51035;-43
2021/12/06 10:21:27;;;;;;;;;3.25;1.00;;;;;22.39;39.37;101119.63;5087900;27;52908;-43
2021/12/06 10:23:55;;;;;;;;;1.00;1.00;;;;;22.45;39.12;101113.22;5086575;27;51452;-43
2021/12/06 10:26:25;;;;;;;;;1.25;1.25;;;;;22.51;39.16;101111.47;5071015;27;51494;-45
2021/12/06 10:29:07;;;;;;;;;2.00;1.25;;;;;22.56;39.04;101110.78;5071006;27;51405;-47
2021/12/06 10:31:37;;;;;;;;;2.25;2.25;;;;;22.60;39.68;101100.94;5071004;27;54153;-44
2021/12/06 10:34:03;;;;;;;;;2.00;2.00;;;;;22.67;39.26;101096.19;5068875;27;51685;-45
2021/12/06 10:36:30;;;;;;;;;3.25;2.50;;;;;22.71;38.93;101101.00;5071413;27;51235;-44
2021/12/06 10:39:03;;;;;;;;;2.25;1.25;;;;;22.74;38.99;101072.97;5068803;27;51250;-43
2021/12/06 10:41:32;;;;;;;;;4.00;2.50;;;;;22.77;39.01;101075.25;5069823;27;52324;-43
2021/12/06 10:44:09;;;;;;;;;1.00;1.00;;;;;22.81;38.55;101072.84;5071067;27;51422;-47
2021/12/06 10:46:38;;;;;;;;;2.00;2.00;;;;;22.85;38.77;101076.88;5070049;27;51228;-44
2021/12/06 10:49:08;;;;;;;;;1.50;1.50;;;;;22.88;38.84;101067.28;5069112;27;51710;-45
2021/12/06 10:51:35;;;;;;;;;4.00;2.75;;;;;22.92;38.76;101069.34;5072751;27;51165;-55
2021/12/06 10:54:15;;;;;;;;;2.25;2.25;;;;;22.96;38.38;101058.69;5070546;27;51279;-53
2021/12/06 10:56:46;;;;;;;;;2.50;2.50;;;;;22.99;38.95;101050.75;5074881;27;51439;-46
2021/12/06 10:59:34;;;;;;;;;4.50;2.75;;;;;23.02;38.77;101053.03;5072240;27;52571;-44
2021/12/06 11:02:06;;;;;;;;;2.50;2.50;;;;;23.07;38.39;101044.06;5078895;27;52263;-44
2021/12/06 11:04:31;;;;;;;;;2.00;2.00;;;;;23.10;38.75;101043.59;5072357;27;51190;-46
2021/12/06 11:07:05;;;;;;;;;3.00;3.00;;;;;23.14;38.68;101044.81;5071658;27;51964;-44
2021/12/06 11:09:32;;;;;;;;;3.75;2.00;;;;;23.18;38.25;101047.94;5073003;27;51352;-44
2021/12/06 11:12:00;;;;;;;;;3.75;2.00;;;;;23.20;38.41;101035.56;5075608;27;51779;-46
2021/12/06 11:14:31;;;;;;;;;2.75;1.50;;;;;23.24;38.47;101034.03;5071110;27;51319;-47
2021/12/06 11:16:57;;;;;;;;;5.50;2.75;;;;;23.28;37.92;101035.25;5072004;27;51049;-46
2021/12/06 11:19:24;;;;;;;;;2.00;2.00;;;;;23.31;38.24;101026.47;5075002;27;51348;-46
2021/12/06 11:21:51;;;;;;;;;5.00;5.00;;;;;23.34;38.08;101033.44;5083734;27;52019;-44
2021/12/06 11:24:39;;;;;;;;;13.00;13.00;;;;;23.37;38.66;101046.81;5071160;27;51006;-44
2021/12/06 11:27:11;;;;;;;;;30.75;25.50;;;;;23.35;38.69;101048.97;5077226;27;51007;-44
2021/12/06 11:29:47;;;;;;;;;31.25;25.50;;;;;23.31;38.39;101044.97;5075017;27;51243;-45
2021/12/06 11:32:21;;;;;;;;;35.25;28.75;;;;;23.25;39.00;101043.16;5076087;27;53280;-45
2021/12/06 11:34:46;;;;;;;;;28.75;27.75;;;;;23.17;38.78;101038.81;5081875;27;51238;-45
2021/12/06 11:37:33;;;;;;;;;30.25;25.75;;;;;23.10;38.60;101034.47;5066657;27;50997;-44
2021/12/06 11:40:19;;;;;;;;;27.00;22.75;;;;;23.01;38.76;101014.59;5067682;27;51403;-48
2021/12/06 11:42:47;;;;;;;;;25.50;22.00;;;;;22.94;38.95;101008.34;5087799;27;51902;-44